createdAt,value
2023-03-29T00:02:30.370Z,-1.77
2023-03-29T00:04:57.913Z,-1.79
2023-03-29T00:07:26.109Z,-1.80
2023-03-29T00:09:53.108Z,-1.83
2023-03-29T00:12:19.798Z,-1.82
2023-03-29T00:14:46.454Z,-1.87
2023-03-29T00:17:13.209Z,-1.84
2023-03-29T00:19:39.966Z,-1.89
2023-03-29T00:22:06.656Z,-1.90
2023-03-29T00:24:33.445Z,-1.94
2023-03-29T00:27:00.090Z,-1.94
2023-03-29T00:29:26.706Z,-1.95
2023-03-29T00:31:56.235Z,-1.94
2023-03-29T00:34:23.436Z,-1.95
2023-03-29T00:36:50.977Z,-2.03
2023-03-29T00:39:18.261Z,-2.03
2023-03-29T00:41:51.148Z,-2.03
2023-03-29T00:44:55.845Z,-2.05
2023-03-29T00:47:25.453Z,-2.05
2023-03-29T00:49:52.286Z,-2.12
2023-03-29T00:52:21.366Z,-2.17
2023-03-29T00:54:49.818Z,-2.15
2023-03-29T00:57:16.563Z,-2.14
2023-03-29T00:59:43.436Z,-2.15
2023-03-29T01:02:10.479Z,-2.14
2023-03-29T01:05:05.669Z,-2.14
2023-03-29T01:07:40.943Z,-2.17
2023-03-29T01:10:40.716Z,-2.20
2023-03-29T01:13:12.078Z,-2.22
2023-03-29T01:15:40.884Z,-2.25
2023-03-29T01:18:08.884Z,-2.25
2023-03-29T01:20:51.128Z,-2.24
2023-03-29T01:23:46.866Z,-2.25
2023-03-29T01:26:45.428Z,-2.27
2023-03-29T01:29:17.802Z,-2.27
2023-03-29T01:31:54.911Z,-2.31
2023-03-29T01:34:25.808Z,-2.28
2023-03-29T01:37:04.484Z,-2.31
2023-03-29T01:39:31.581Z,-2.34
2023-03-29T01:42:04.433Z,-2.35
2023-03-29T01:44:35.458Z,-2.32
2023-03-29T01:47:11.436Z,-2.32
2023-03-29T01:49:42.376Z,-2.35
2023-03-29T01:52:27.381Z,-2.38
2023-03-29T01:54:56.916Z,-2.40
2023-03-29T01:57:25.178Z,-2.40
2023-03-29T01:59:51.948Z,-2.40
2023-03-29T02:02:18.655Z,-2.38
2023-03-29T02:04:50.154Z,-2.35
2023-03-29T02:07:17.826Z,-2.35
2023-03-29T02:09:44.457Z,-2.38
2023-03-29T02:12:11.408Z,-2.38
2023-03-29T02:14:38.325Z,-2.38
2023-03-29T02:17:20.889Z,-2.40
2023-03-29T02:19:50.307Z,-2.41
2023-03-29T02:22:18.462Z,-2.45
2023-03-29T02:24:45.405Z,-2.42
2023-03-29T02:27:12.334Z,-2.41
2023-03-29T02:29:38.937Z,-2.45
2023-03-29T02:32:21.915Z,-2.40
2023-03-29T02:34:53.609Z,-2.38
2023-03-29T02:37:20.452Z,-2.32
2023-03-29T02:39:48.617Z,-2.35
2023-03-29T02:42:17.607Z,-2.38
2023-03-29T02:44:44.429Z,-2.45
2023-03-29T02:47:15.800Z,-2.38
2023-03-29T02:49:42.908Z,-2.40
2023-03-29T02:52:12.374Z,-2.38
2023-03-29T02:54:43.099Z,-2.42
2023-03-29T02:57:10.300Z,-2.40
2023-03-29T02:59:38.532Z,-2.41
2023-03-29T03:02:05.457Z,-2.45
2023-03-29T03:04:34.207Z,-2.44
2023-03-29T03:07:01.294Z,-2.45
2023-03-29T03:09:28.358Z,-2.45
2023-03-29T03:11:55.028Z,-2.44
2023-03-29T03:14:22.937Z,-2.45
2023-03-29T03:16:50.078Z,-2.46
2023-03-29T03:19:16.975Z,-2.55
2023-03-29T03:21:44.077Z,-2.60
2023-03-29T03:24:10.742Z,-2.58
2023-03-29T03:26:38.291Z,-2.59
2023-03-29T03:29:05.300Z,-2.62
2023-03-29T03:31:33.668Z,-2.63
2023-03-29T03:34:00.430Z,-2.66
2023-03-29T03:36:29.114Z,-2.66
2023-03-29T03:38:55.895Z,-2.63
2023-03-29T03:41:22.831Z,-2.68
2023-03-29T03:43:49.611Z,-2.65
2023-03-29T03:46:17.218Z,-2.62
2023-03-29T03:48:44.789Z,-2.65
2023-03-29T03:51:11.947Z,-2.69
2023-03-29T03:53:38.774Z,-2.69
2023-03-29T03:56:09.262Z,-2.69
2023-03-29T03:58:36.566Z,-2.70
2023-03-29T04:01:03.882Z,-2.73
2023-03-29T04:03:31.769Z,-2.76
2023-03-29T04:06:02.062Z,-2.72
2023-03-29T04:08:28.824Z,-2.73
2023-03-29T04:10:56.839Z,-2.77
2023-03-29T04:13:23.596Z,-2.76
2023-03-29T04:15:54.172Z,-2.75
2023-03-29T04:18:21.460Z,-2.77
2023-03-29T04:20:48.335Z,-2.80
2023-03-29T04:23:15.339Z,-2.79
2023-03-29T04:25:42.018Z,-2.77
2023-03-29T04:28:09.659Z,-2.77
2023-03-29T04:30:36.331Z,-2.76
2023-03-29T04:33:03.185Z,-2.72
2023-03-29T04:35:30.119Z,-2.72
2023-03-29T04:37:57.207Z,-2.68
2023-03-29T04:40:24.026Z,-2.63
2023-03-29T04:42:51.761Z,-2.66
2023-03-29T04:45:18.599Z,-2.68
2023-03-29T04:47:45.891Z,-2.65
2023-03-29T04:50:12.922Z,-2.65
2023-03-29T04:52:39.697Z,-2.60
2023-03-29T04:55:07.938Z,-2.53
2023-03-29T04:57:34.657Z,-2.48
2023-03-29T05:00:01.428Z,-2.42
2023-03-29T05:02:30.983Z,-2.28
2023-03-29T05:04:58.806Z,-2.10
2023-03-29T05:07:25.503Z,-1.97
2023-03-29T05:09:52.127Z,-1.77
2023-03-29T05:12:18.800Z,-1.63
2023-03-29T05:14:45.979Z,-1.53
2023-03-29T05:17:12.720Z,-1.55
2023-03-29T05:19:39.339Z,-1.53
2023-03-29T05:22:06.015Z,-1.53
2023-03-29T05:24:32.747Z,-1.44
2023-03-29T05:26:59.594Z,-1.35
2023-03-29T05:29:26.701Z,-1.35
2023-03-29T05:31:54.205Z,-1.24
2023-03-29T05:34:20.987Z,-1.18
2023-03-29T05:36:49.107Z,-1.12
2023-03-29T05:39:15.807Z,-1.01
2023-03-29T05:41:42.458Z,-0.93
2023-03-29T05:44:09.223Z,-0.84
2023-03-29T05:46:36.008Z,-0.69
2023-03-29T05:49:02.776Z,-0.65
2023-03-29T05:51:29.498Z,-0.65
2023-03-29T05:53:56.300Z,-0.63
2023-03-29T05:56:22.961Z,-0.66
2023-03-29T05:58:49.688Z,-0.55
2023-03-29T06:01:17.969Z,-0.39
2023-03-29T06:03:46.261Z,-0.30
2023-03-29T06:06:15.287Z,-0.30
2023-03-29T06:08:43.364Z,-0.18
2023-03-29T06:11:10.893Z,-0.09
2023-03-29T06:13:39.043Z,-0.15
2023-03-29T06:16:06.465Z,-0.07
2023-03-29T06:18:33.428Z,0.10
2023-03-29T06:21:02.139Z,0.31
2023-03-29T06:23:29.376Z,0.34
2023-03-29T06:25:56.379Z,0.29
2023-03-29T06:28:24.030Z,0.48
2023-03-29T06:30:50.708Z,0.44
2023-03-29T06:33:18.852Z,0.71
2023-03-29T06:35:47.139Z,0.82
2023-03-29T06:38:15.226Z,0.89
2023-03-29T06:40:43.241Z,1.02
2023-03-29T06:43:10.041Z,1.13
2023-03-29T06:45:37.430Z,1.13
2023-03-29T06:48:04.682Z,1.15
2023-03-29T06:50:31.391Z,1.43
2023-03-29T06:52:58.447Z,1.60
2023-03-29T06:55:26.175Z,1.78
2023-03-29T06:57:54.045Z,1.92
2023-03-29T07:00:30.768Z,2.05
2023-03-29T07:02:58.778Z,1.86
2023-03-29T07:05:28.691Z,1.98
2023-03-29T07:07:57.157Z,2.08
2023-03-29T07:10:38.441Z,2.28
2023-03-29T07:13:06.204Z,2.19
2023-03-29T07:15:33.303Z,2.02
2023-03-29T07:18:01.053Z,2.12
2023-03-29T07:20:28.264Z,2.13
2023-03-29T07:22:55.131Z,2.34
2023-03-29T07:25:25.186Z,2.29
2023-03-29T07:27:54.647Z,2.39
2023-03-29T07:30:23.957Z,2.52
2023-03-29T07:32:52.421Z,2.98
2023-03-29T07:35:19.316Z,3.59
2023-03-29T07:37:46.497Z,4.21
2023-03-29T07:40:18.910Z,4.55
2023-03-29T07:42:46.137Z,5.08
2023-03-29T07:45:13.736Z,5.62
2023-03-29T07:47:41.169Z,5.93
2023-03-29T07:50:08.833Z,6.00
2023-03-29T07:52:36.551Z,6.20
2023-03-29T07:55:03.811Z,5.99
2023-03-29T07:57:30.787Z,6.38
2023-03-29T07:59:58.311Z,6.58
2023-03-29T08:02:25.096Z,6.61
2023-03-29T08:04:53.495Z,6.61
2023-03-29T08:07:21.186Z,6.72
2023-03-29T08:09:48.664Z,6.80
2023-03-29T08:12:15.807Z,6.56
2023-03-29T08:14:42.482Z,6.20
2023-03-29T08:17:09.291Z,5.85
2023-03-29T08:19:36.210Z,5.93
2023-03-29T08:22:02.894Z,5.89
2023-03-29T08:24:29.662Z,6.24
2023-03-29T08:26:56.339Z,6.16
2023-03-29T08:29:23.128Z,6.21
2023-03-29T08:31:49.844Z,5.83
2023-03-29T08:34:16.613Z,5.91
2023-03-29T08:36:43.380Z,6.32
2023-03-29T08:39:10.037Z,7.07
2023-03-29T08:41:42.725Z,7.54
2023-03-29T08:44:11.915Z,7.58
2023-03-29T08:46:48.598Z,7.71
2023-03-29T08:49:15.350Z,7.64
2023-03-29T08:52:07.034Z,7.52
2023-03-29T08:54:40.650Z,7.59
2023-03-29T08:57:28.731Z,7.85
2023-03-29T08:59:55.639Z,8.10
2023-03-29T09:02:27.225Z,8.16
2023-03-29T09:04:58.108Z,8.00
2023-03-29T09:07:26.536Z,7.65
2023-03-29T09:09:53.510Z,7.64
2023-03-29T09:12:26.425Z,8.14
2023-03-29T09:14:53.105Z,8.20
2023-03-29T09:17:26.695Z,7.94
2023-03-29T09:20:12.588Z,8.09
2023-03-29T09:22:59.102Z,8.14
2023-03-29T09:25:53.427Z,8.04
2023-03-29T09:28:43.764Z,7.71
2023-03-29T09:31:26.754Z,7.28
2023-03-29T09:34:02.123Z,7.14
2023-03-29T09:36:52.618Z,7.30
2023-03-29T09:39:21.186Z,7.35
2023-03-29T09:42:09.193Z,7.48
2023-03-29T09:44:41.587Z,7.28
2023-03-29T09:47:15.347Z,7.25
2023-03-29T09:49:43.740Z,7.34
2023-03-29T09:52:13.053Z,7.37
2023-03-29T09:54:39.977Z,7.58
2023-03-29T09:57:06.986Z,7.61
2023-03-29T09:59:33.940Z,7.50
2023-03-29T10:02:12.975Z,7.58
2023-03-29T10:04:42.060Z,7.38
2023-03-29T10:07:09.889Z,7.21
2023-03-29T10:09:36.611Z,7.21
2023-03-29T10:12:06.686Z,7.31
2023-03-29T10:14:38.353Z,7.54
2023-03-29T10:17:07.217Z,7.76
2023-03-29T10:19:35.005Z,7.85
2023-03-29T10:22:14.592Z,7.87
2023-03-29T10:24:41.223Z,7.75
2023-03-29T10:27:07.926Z,7.89
2023-03-29T10:29:40.054Z,7.96
2023-03-29T10:32:30.845Z,8.06
2023-03-29T10:35:06.064Z,8.14
2023-03-29T10:37:32.744Z,8.10
2023-03-29T10:39:59.625Z,8.09
2023-03-29T10:42:26.749Z,7.87
2023-03-29T10:45:00.171Z,7.92
2023-03-29T10:47:27.852Z,7.87
2023-03-29T10:49:59.133Z,7.94
2023-03-29T10:52:25.887Z,7.61
2023-03-29T10:54:54.015Z,7.87
2023-03-29T10:57:47.419Z,8.06
2023-03-29T11:00:20.760Z,8.19
2023-03-29T11:02:47.933Z,8.33
2023-03-29T11:05:24.744Z,8.07
2023-03-29T11:08:26.239Z,7.92
2023-03-29T11:10:56.127Z,8.06
2023-03-29T11:13:59.938Z,8.19
2023-03-29T11:16:47.083Z,8.33
2023-03-29T11:19:53.000Z,8.51
2023-03-29T11:22:44.863Z,8.58
2023-03-29T11:25:29.063Z,8.86
2023-03-29T11:28:01.392Z,8.92
2023-03-29T11:30:37.094Z,8.79
2023-03-29T11:33:38.157Z,8.72
2023-03-29T11:36:18.419Z,9.17
2023-03-29T11:38:56.116Z,9.51
2023-03-29T11:41:30.386Z,9.71
2023-03-29T11:44:00.120Z,9.59
2023-03-29T11:46:54.512Z,9.70
2023-03-29T11:49:46.334Z,9.47
2023-03-29T11:52:20.270Z,9.24
2023-03-29T11:54:57.357Z,9.22
2023-03-29T11:57:29.158Z,9.27
2023-03-29T12:00:04.482Z,9.46
2023-03-29T12:02:44.676Z,9.38
2023-03-29T12:05:21.610Z,9.34
2023-03-29T12:07:55.657Z,9.36
2023-03-29T12:10:30.983Z,9.36
2023-03-29T12:13:02.490Z,9.10
2023-03-29T12:15:30.281Z,8.71
2023-03-29T12:18:22.828Z,9.02
2023-03-29T12:20:53.581Z,9.17
2023-03-29T12:23:20.584Z,9.37
2023-03-29T12:25:57.012Z,9.31
2023-03-29T12:28:44.542Z,9.20
2023-03-29T12:31:27.916Z,9.33
2023-03-29T12:34:10.996Z,9.29
2023-03-29T12:37:07.795Z,9.29
2023-03-29T12:39:36.138Z,9.31
2023-03-29T12:42:22.483Z,9.51
2023-03-29T12:44:51.437Z,9.92
2023-03-29T12:47:23.931Z,10.06
2023-03-29T12:49:59.206Z,10.12
2023-03-29T12:52:36.269Z,9.86
2023-03-29T12:55:25.248Z,9.82
2023-03-29T12:58:31.080Z,9.73
2023-03-29T13:01:31.222Z,9.51
2023-03-29T13:04:02.431Z,9.27
2023-03-29T13:06:57.338Z,9.05
2023-03-29T13:09:30.129Z,9.00
2023-03-29T13:12:27.169Z,9.08
2023-03-29T13:15:01.585Z,8.85
2023-03-29T13:17:36.998Z,8.90
2023-03-29T13:20:19.084Z,9.00
2023-03-29T13:22:56.191Z,9.09
2023-03-29T13:25:41.557Z,8.93
2023-03-29T13:28:47.243Z,9.05
2023-03-29T13:31:40.768Z,8.93
2023-03-29T13:34:39.879Z,8.99
2023-03-29T13:37:41.185Z,8.78
2023-03-29T13:40:40.599Z,8.45
2023-03-29T13:43:20.035Z,8.21
2023-03-29T13:45:58.817Z,8.38
2023-03-29T13:48:29.911Z,8.79
2023-03-29T13:51:20.561Z,9.05
2023-03-29T13:53:52.103Z,9.20
2023-03-29T13:56:23.382Z,9.02
2023-03-29T13:58:52.168Z,8.82
2023-03-29T14:01:58.071Z,8.67
2023-03-29T14:04:31.342Z,8.60
2023-03-29T14:06:58.457Z,8.33
2023-03-29T14:09:32.071Z,8.51
2023-03-29T14:12:01.760Z,8.52
2023-03-29T14:14:30.173Z,8.42
2023-03-29T14:16:57.065Z,8.36
2023-03-29T14:19:32.108Z,8.45
2023-03-29T14:22:02.185Z,8.33
2023-03-29T14:24:41.121Z,8.34
2023-03-29T14:27:10.219Z,8.27
2023-03-29T14:29:41.212Z,7.94
2023-03-29T14:32:11.034Z,7.85
2023-03-29T14:34:38.228Z,8.12
2023-03-29T14:37:09.452Z,8.37
2023-03-29T14:39:36.187Z,8.73
2023-03-29T14:42:02.880Z,9.36
2023-03-29T14:44:33.382Z,9.75
2023-03-29T14:47:00.915Z,9.88
2023-03-29T14:49:27.572Z,10.10
2023-03-29T14:51:54.876Z,10.28
2023-03-29T14:54:29.392Z,9.67
2023-03-29T14:56:56.099Z,8.68
2023-03-29T14:59:32.750Z,7.96
2023-03-29T15:01:59.409Z,7.48
2023-03-29T15:04:35.218Z,7.34
2023-03-29T15:07:04.307Z,7.13
2023-03-29T15:09:32.633Z,6.89
2023-03-29T15:11:59.783Z,6.72
2023-03-29T15:14:28.195Z,6.52
2023-03-29T15:16:58.643Z,6.22
2023-03-29T15:19:25.721Z,6.07
2023-03-29T15:21:52.565Z,5.87
2023-03-29T15:24:29.916Z,5.81
2023-03-29T15:27:01.411Z,5.77
2023-03-29T15:29:36.690Z,5.63
2023-03-29T15:32:03.794Z,5.46
2023-03-29T15:34:31.560Z,5.28
2023-03-29T15:36:58.525Z,5.31
2023-03-29T15:39:25.199Z,5.31
2023-03-29T15:41:52.444Z,5.31
2023-03-29T15:44:30.233Z,5.18
2023-03-29T15:46:57.807Z,5.11
2023-03-29T15:49:25.120Z,5.08
2023-03-29T15:51:54.030Z,5.07
2023-03-29T15:54:21.746Z,5.04
2023-03-29T15:56:50.458Z,5.04
2023-03-29T15:59:18.173Z,5.03
2023-03-29T16:01:44.967Z,4.91
2023-03-29T16:04:14.289Z,4.88
2023-03-29T16:06:41.433Z,4.81
2023-03-29T16:09:08.736Z,4.76
2023-03-29T16:11:35.638Z,4.69
2023-03-29T16:14:02.365Z,4.63
2023-03-29T16:16:29.324Z,4.59
2023-03-29T16:18:58.979Z,4.60
2023-03-29T16:21:26.537Z,4.62
2023-03-29T16:23:53.193Z,4.56
2023-03-29T16:26:19.870Z,4.53
2023-03-29T16:28:46.523Z,4.48
2023-03-29T16:31:13.769Z,4.38
2023-03-29T16:33:41.074Z,4.38
2023-03-29T16:36:09.638Z,4.36
2023-03-29T16:38:36.474Z,4.36
2023-03-29T16:41:03.887Z,4.35
2023-03-29T16:43:30.686Z,4.35
2023-03-29T16:45:57.492Z,4.32
2023-03-29T16:48:24.278Z,4.22
2023-03-29T16:50:51.089Z,4.15
2023-03-29T16:53:21.670Z,4.18
2023-03-29T16:55:48.697Z,4.08
2023-03-29T16:58:15.600Z,3.99
2023-03-29T17:00:44.393Z,3.97
2023-03-29T17:03:12.734Z,3.87
2023-03-29T17:05:42.291Z,3.84
2023-03-29T17:08:10.246Z,3.80
2023-03-29T17:10:39.491Z,3.76
2023-03-29T17:13:06.841Z,3.73
2023-03-29T17:15:33.735Z,3.69
2023-03-29T17:18:00.552Z,3.63
2023-03-29T17:20:27.305Z,3.64
2023-03-29T17:22:56.002Z,3.62
2023-03-29T17:25:23.183Z,3.56
2023-03-29T17:27:49.964Z,3.48
2023-03-29T17:30:16.774Z,3.40
2023-03-29T17:32:44.159Z,3.44
2023-03-29T17:35:10.954Z,3.42
2023-03-29T17:37:37.674Z,3.33
2023-03-29T17:40:11.479Z,3.32
2023-03-29T17:42:38.168Z,3.28
2023-03-29T17:45:05.435Z,3.28
2023-03-29T17:47:32.119Z,3.26
2023-03-29T17:49:58.868Z,3.25
2023-03-29T17:52:26.277Z,3.18
2023-03-29T17:54:52.935Z,3.11
2023-03-29T17:57:19.737Z,3.07
2023-03-29T17:59:46.571Z,3.01
2023-03-29T18:02:17.903Z,2.97
2023-03-29T18:04:44.745Z,2.90
2023-03-29T18:07:11.717Z,2.88
2023-03-29T18:09:38.506Z,2.85
2023-03-29T18:12:05.301Z,2.81
2023-03-29T18:14:32.007Z,2.79
2023-03-29T18:16:58.742Z,2.74
2023-03-29T18:19:25.519Z,2.71
2023-03-29T18:21:52.269Z,2.65
2023-03-29T18:24:18.979Z,2.57
2023-03-29T18:26:45.713Z,2.44
2023-03-29T18:29:12.571Z,2.33
2023-03-29T18:31:39.294Z,2.25
2023-03-29T18:34:06.003Z,2.12
2023-03-29T18:36:32.726Z,2.08
2023-03-29T18:39:05.797Z,2.01
2023-03-29T18:41:33.489Z,1.98
2023-03-29T18:44:00.883Z,1.88
2023-03-29T18:46:30.619Z,1.68
2023-03-29T18:48:58.549Z,1.64
2023-03-29T18:51:26.132Z,1.61
2023-03-29T18:53:52.904Z,1.56
2023-03-29T18:56:19.566Z,1.56
2023-03-29T18:58:46.486Z,1.51
2023-03-29T19:01:14.022Z,1.51
2023-03-29T19:03:40.921Z,1.51
2023-03-29T19:06:07.983Z,1.47
2023-03-29T19:08:36.806Z,1.48
2023-03-29T19:11:04.731Z,1.37
2023-03-29T19:13:31.523Z,1.32
2023-03-29T19:15:58.252Z,1.33
2023-03-29T19:18:25.463Z,1.27
2023-03-29T19:20:54.159Z,1.29
2023-03-29T19:23:22.009Z,1.26
2023-03-29T19:25:58.628Z,1.27
2023-03-29T19:28:26.152Z,1.22
2023-03-29T19:30:53.288Z,1.19
2023-03-29T19:33:20.222Z,1.15
2023-03-29T19:35:47.248Z,1.10
2023-03-29T19:38:14.470Z,0.95
2023-03-29T19:40:46.078Z,0.89
2023-03-29T19:43:17.588Z,0.85
2023-03-29T19:45:46.115Z,0.78
2023-03-29T19:48:21.904Z,0.75
2023-03-29T19:50:50.265Z,0.69
2023-03-29T19:53:16.993Z,0.65
2023-03-29T19:55:45.408Z,0.62
2023-03-29T19:58:12.785Z,0.53
2023-03-29T20:00:39.552Z,0.57
2023-03-29T20:03:09.928Z,0.53
2023-03-29T20:05:37.293Z,0.51
2023-03-29T20:08:04.028Z,0.50
2023-03-29T20:10:30.696Z,0.46
2023-03-29T20:12:57.365Z,0.44
2023-03-29T20:15:25.968Z,0.46
2023-03-29T20:17:54.487Z,0.44
2023-03-29T20:20:24.100Z,0.44
2023-03-29T20:22:53.962Z,0.41
2023-03-29T20:25:21.312Z,0.40
2023-03-29T20:27:49.485Z,0.44
2023-03-29T20:30:16.502Z,0.40
2023-03-29T20:32:43.300Z,0.40
2023-03-29T20:35:11.155Z,0.37
2023-03-29T20:37:37.822Z,0.39
2023-03-29T20:40:05.654Z,0.33
2023-03-29T20:42:34.419Z,0.29
2023-03-29T20:45:01.387Z,0.26
2023-03-29T20:47:29.504Z,0.24
2023-03-29T20:49:56.825Z,0.19
2023-03-29T20:52:24.445Z,0.13
2023-03-29T20:54:51.286Z,0.14
2023-03-29T20:57:19.737Z,-0.01
2023-03-29T20:59:46.631Z,-0.08
2023-03-29T21:02:21.705Z,-0.12
2023-03-29T21:04:52.223Z,-0.14
2023-03-29T21:07:20.140Z,-0.11
2023-03-29T21:09:48.408Z,-0.18
2023-03-29T21:12:15.040Z,-0.17
2023-03-29T21:14:41.802Z,-0.15
2023-03-29T21:17:09.551Z,-0.18
2023-03-29T21:19:38.097Z,-0.19
2023-03-29T21:22:05.030Z,-0.23
2023-03-29T21:24:33.147Z,-0.26
2023-03-29T21:27:00.666Z,-0.29
2023-03-29T21:29:27.372Z,-0.42
2023-03-29T21:31:54.451Z,-0.42
2023-03-29T21:34:21.145Z,-0.42
2023-03-29T21:36:47.802Z,-0.40
2023-03-29T21:39:14.568Z,-0.38
2023-03-29T21:41:41.220Z,-0.38
2023-03-29T21:44:07.904Z,-0.43
2023-03-29T21:46:34.796Z,-0.39
2023-03-29T21:49:01.489Z,-0.40
2023-03-29T21:51:28.150Z,-0.45
2023-03-29T21:53:54.882Z,-0.49
2023-03-29T21:56:22.477Z,-0.55
2023-03-29T21:58:49.193Z,-0.53
2023-03-29T22:01:16.349Z,-0.53
2023-03-29T22:03:43.173Z,-0.50
2023-03-29T22:06:12.860Z,-0.57
2023-03-29T22:08:39.568Z,-0.60
2023-03-29T22:11:11.053Z,-0.62
2023-03-29T22:13:37.897Z,-0.59
2023-03-29T22:16:04.907Z,-0.62
2023-03-29T22:18:42.125Z,-0.63
2023-03-29T22:21:14.516Z,-0.63
2023-03-29T22:23:42.469Z,-0.63
2023-03-29T22:26:09.913Z,-0.67
2023-03-29T22:28:36.978Z,-0.73
2023-03-29T22:31:05.237Z,-0.77
2023-03-29T22:33:32.990Z,-0.83
2023-03-29T22:36:00.661Z,-0.84
2023-03-29T22:38:28.128Z,-0.90
2023-03-29T22:40:55.470Z,-0.97
2023-03-29T22:43:22.144Z,-0.93
2023-03-29T22:45:48.880Z,-0.91
2023-03-29T22:48:15.516Z,-0.98
2023-03-29T22:50:42.987Z,-1.07
2023-03-29T22:53:10.399Z,-1.09
2023-03-29T22:55:37.212Z,-1.08
2023-03-29T22:58:03.953Z,-1.09
2023-03-29T23:00:30.972Z,-1.12
2023-03-29T23:02:57.671Z,-1.01
2023-03-29T23:05:24.401Z,-1.03
2023-03-29T23:07:51.120Z,-1.00
2023-03-29T23:10:17.782Z,-0.91
2023-03-29T23:12:44.441Z,-0.86
2023-03-29T23:15:11.760Z,-0.88
2023-03-29T23:17:38.449Z,-0.87
2023-03-29T23:20:10.819Z,-0.88
2023-03-29T23:22:39.635Z,-0.86
2023-03-29T23:25:06.840Z,-0.87
2023-03-29T23:27:34.709Z,-0.88
2023-03-29T23:30:01.749Z,-0.84
2023-03-29T23:32:28.592Z,-0.83
2023-03-29T23:34:55.413Z,-0.81
2023-03-29T23:37:22.485Z,-0.84
2023-03-29T23:39:49.129Z,-0.81
2023-03-29T23:42:15.824Z,-0.86
2023-03-29T23:44:42.755Z,-0.98
2023-03-29T23:47:09.483Z,-0.96
2023-03-29T23:49:36.315Z,-0.90
2023-03-29T23:52:02.953Z,-0.91
2023-03-29T23:54:29.695Z,-0.88
2023-03-29T23:56:56.584Z,-0.84
2023-03-29T23:59:26.948Z,-0.83
